sensor_id;sensor_type;location;lat;lon;timestamp;P1;durP1;ratioP1;P2;durP2;ratioP2
4726;SDS011;2377;51.734;8.950;2023-02-08T00:00:33;16.27;;;9.23;;
4726;SDS011;2377;51.734;8.950;2023-02-08T00:03:01;17.37;;;9.70;;
4726;SDS011;2377;51.734;8.950;2023-02-08T00:05:28;14.80;;;8.90;;
4726;SDS011;2377;51.734;8.950;2023-02-08T00:07:55;18.30;;;9.57;;
4726;SDS011;2377;51.734;8.950;2023-02-08T00:10:22;19.03;;;10.33;;
4726;SDS011;2377;51.734;8.950;2023-02-08T00:12:49;18.03;;;9.93;;
4726;SDS011;2377;51.734;8.950;2023-02-08T00:15:17;17.20;;;10.07;;
4726;SDS011;2377;51.734;8.950;2023-02-08T00:17:44;16.57;;;9.60;;
4726;SDS011;2377;51.734;8.950;2023-02-08T00:20:13;16.90;;;10.30;;
4726;SDS011;2377;51.734;8.950;2023-02-08T00:22:40;17.57;;;9.20;;
4726;SDS011;2377;51.734;8.950;2023-02-08T00:25:07;16.60;;;9.97;;
4726;SDS011;2377;51.734;8.950;2023-02-08T00:27:35;17.27;;;9.97;;
4726;SDS011;2377;51.734;8.950;2023-02-08T00:30:02;19.40;;;10.57;;
4726;SDS011;2377;51.734;8.950;2023-02-08T00:32:30;19.20;;;10.30;;
4726;SDS011;2377;51.734;8.950;2023-02-08T00:34:57;17.63;;;10.33;;
4726;SDS011;2377;51.734;8.950;2023-02-08T00:37:25;17.87;;;9.57;;
4726;SDS011;2377;51.734;8.950;2023-02-08T00:39:52;17.77;;;9.83;;
4726;SDS011;2377;51.734;8.950;2023-02-08T00:42:19;16.70;;;10.23;;
4726;SDS011;2377;51.734;8.950;2023-02-08T00:44:46;15.23;;;8.90;;
4726;SDS011;2377;51.734;8.950;2023-02-08T00:47:13;18.80;;;10.13;;
4726;SDS011;2377;51.734;8.950;2023-02-08T00:49:39;18.10;;;9.80;;
4726;SDS011;2377;51.734;8.950;2023-02-08T00:52:06;17.30;;;10.00;;
4726;SDS011;2377;51.734;8.950;2023-02-08T00:54:35;17.00;;;9.57;;
4726;SDS011;2377;51.734;8.950;2023-02-08T00:57:02;17.00;;;10.10;;
4726;SDS011;2377;51.734;8.950;2023-02-08T00:59:29;17.13;;;9.57;;
4726;SDS011;2377;51.734;8.950;2023-02-08T01:01:56;16.10;;;8.13;;
4726;SDS011;2377;51.734;8.950;2023-02-08T01:06:51;22.30;;;10.30;;
4726;SDS011;2377;51.734;8.950;2023-02-08T01:09:18;18.50;;;9.70;;
4726;SDS011;2377;51.734;8.950;2023-02-08T01:11:46;18.87;;;10.80;;
4726;SDS011;2377;51.734;8.950;2023-02-08T01:14:13;17.77;;;9.40;;
4726;SDS011;2377;51.734;8.950;2023-02-08T01:16:40;21.93;;;9.90;;
4726;SDS011;2377;51.734;8.950;2023-02-08T01:19:08;18.60;;;10.03;;
4726;SDS011;2377;51.734;8.950;2023-02-08T01:21:37;17.07;;;10.47;;
4726;SDS011;2377;51.734;8.950;2023-02-08T01:24:07;16.07;;;8.90;;
4726;SDS011;2377;51.734;8.950;2023-02-08T01:26:34;16.67;;;9.10;;
4726;SDS011;2377;51.734;8.950;2023-02-08T01:29:04;14.57;;;8.00;;
4726;SDS011;2377;51.734;8.950;2023-02-08T01:31:32;18.03;;;9.67;;
4726;SDS011;2377;51.734;8.950;2023-02-08T01:34:03;16.57;;;9.07;;
4726;SDS011;2377;51.734;8.950;2023-02-08T01:36:31;15.70;;;8.50;;
4726;SDS011;2377;51.734;8.950;2023-02-08T01:38:59;13.37;;;7.83;;
4726;SDS011;2377;51.734;8.950;2023-02-08T01:41:28;14.90;;;8.13;;
4726;SDS011;2377;51.734;8.950;2023-02-08T01:44:04;14.10;;;8.23;;
4726;SDS011;2377;51.734;8.950;2023-02-08T01:46:54;13.63;;;8.10;;
4726;SDS011;2377;51.734;8.950;2023-02-08T01:49:21;13.03;;;7.93;;
4726;SDS011;2377;51.734;8.950;2023-02-08T01:51:54;12.73;;;7.53;;
4726;SDS011;2377;51.734;8.950;2023-02-08T01:54:29;15.10;;;8.27;;
4726;SDS011;2377;51.734;8.950;2023-02-08T01:57:01;15.03;;;8.50;;
4726;SDS011;2377;51.734;8.950;2023-02-08T01:59:32;15.67;;;9.27;;
4726;SDS011;2377;51.734;8.950;2023-02-08T02:02:06;18.23;;;8.90;;
4726;SDS011;2377;51.734;8.950;2023-02-08T02:04:37;19.53;;;9.73;;
4726;SDS011;2377;51.734;8.950;2023-02-08T02:07:05;17.67;;;9.27;;
4726;SDS011;2377;51.734;8.950;2023-02-08T02:09:35;19.00;;;9.30;;
4726;SDS011;2377;51.734;8.950;2023-02-08T02:12:10;15.40;;;8.37;;
4726;SDS011;2377;51.734;8.950;2023-02-08T02:14:40;16.73;;;9.53;;
4726;SDS011;2377;51.734;8.950;2023-02-08T02:17:09;14.87;;;8.30;;
4726;SDS011;2377;51.734;8.950;2023-02-08T02:19:42;13.23;;;8.00;;
4726;SDS011;2377;51.734;8.950;2023-02-08T02:22:29;15.10;;;8.07;;
4726;SDS011;2377;51.734;8.950;2023-02-08T02:28:38;15.57;;;8.43;;
4726;SDS011;2377;51.734;8.950;2023-02-08T02:31:59;14.90;;;8.53;;
4726;SDS011;2377;51.734;8.950;2023-02-08T02:34:44;16.70;;;9.10;;
4726;SDS011;2377;51.734;8.950;2023-02-08T02:37:24;18.10;;;9.10;;
4726;SDS011;2377;51.734;8.950;2023-02-08T02:40:07;20.77;;;9.83;;
4726;SDS011;2377;51.734;8.950;2023-02-08T02:42:50;22.57;;;10.80;;
4726;SDS011;2377;51.734;8.950;2023-02-08T02:45:49;22.17;;;10.93;;
4726;SDS011;2377;51.734;8.950;2023-02-08T02:48:31;17.90;;;10.07;;
4726;SDS011;2377;51.734;8.950;2023-02-08T02:51:11;18.57;;;10.23;;
4726;SDS011;2377;51.734;8.950;2023-02-08T02:53:46;18.93;;;10.00;;
4726;SDS011;2377;51.734;8.950;2023-02-08T02:56:23;19.00;;;10.40;;
4726;SDS011;2377;51.734;8.950;2023-02-08T02:58:57;19.03;;;10.90;;
4726;SDS011;2377;51.734;8.950;2023-02-08T03:01:31;21.17;;;10.40;;
4726;SDS011;2377;51.734;8.950;2023-02-08T03:04:10;17.90;;;9.43;;
4726;SDS011;2377;51.734;8.950;2023-02-08T03:06:41;16.30;;;8.80;;
4726;SDS011;2377;51.734;8.950;2023-02-08T03:09:32;17.93;;;8.33;;
4726;SDS011;2377;51.734;8.950;2023-02-08T03:12:20;14.17;;;7.60;;
4726;SDS011;2377;51.734;8.950;2023-02-08T03:15:04;16.23;;;9.00;;
4726;SDS011;2377;51.734;8.950;2023-02-08T03:17:49;15.20;;;8.60;;
4726;SDS011;2377;51.734;8.950;2023-02-08T03:20:32;16.17;;;9.30;;
4726;SDS011;2377;51.734;8.950;2023-02-08T03:23:07;17.10;;;9.23;;
4726;SDS011;2377;51.734;8.950;2023-02-08T03:25:46;13.63;;;7.60;;
4726;SDS011;2377;51.734;8.950;2023-02-08T03:28:21;22.30;;;9.20;;
4726;SDS011;2377;51.734;8.950;2023-02-08T03:30:57;19.70;;;10.57;;
4726;SDS011;2377;51.734;8.950;2023-02-08T03:33:37;18.63;;;10.30;;
4726;SDS011;2377;51.734;8.950;2023-02-08T03:36:16;18.10;;;9.43;;
4726;SDS011;2377;51.734;8.950;2023-02-08T03:38:52;16.13;;;9.00;;
4726;SDS011;2377;51.734;8.950;2023-02-08T03:41:21;17.03;;;9.80;;
4726;SDS011;2377;51.734;8.950;2023-02-08T03:43:56;14.73;;;8.70;;
4726;SDS011;2377;51.734;8.950;2023-02-08T03:46:30;15.57;;;7.97;;
4726;SDS011;2377;51.734;8.950;2023-02-08T03:49:03;14.70;;;8.60;;
4726;SDS011;2377;51.734;8.950;2023-02-08T03:51:39;14.80;;;8.13;;
4726;SDS011;2377;51.734;8.950;2023-02-08T03:54:10;13.20;;;7.87;;
4726;SDS011;2377;51.734;8.950;2023-02-08T03:56:44;13.67;;;8.07;;
4726;SDS011;2377;51.734;8.950;2023-02-08T03:59:20;14.20;;;7.33;;
4726;SDS011;2377;51.734;8.950;2023-02-08T04:01:54;15.13;;;8.07;;
4726;SDS011;2377;51.734;8.950;2023-02-08T04:04:26;13.93;;;8.13;;
4726;SDS011;2377;51.734;8.950;2023-02-08T04:07:00;15.00;;;8.17;;
4726;SDS011;2377;51.734;8.950;2023-02-08T04:09:28;16.17;;;7.10;;
4726;SDS011;2377;51.734;8.950;2023-02-08T04:11:55;12.73;;;7.37;;
4726;SDS011;2377;51.734;8.950;2023-02-08T04:14:22;13.43;;;7.20;;
4726;SDS011;2377;51.734;8.950;2023-02-08T04:16:49;14.77;;;7.73;;
4726;SDS011;2377;51.734;8.950;2023-02-08T04:19:17;15.00;;;8.57;;
4726;SDS011;2377;51.734;8.950;2023-02-08T04:21:44;13.23;;;7.93;;
4726;SDS011;2377;51.734;8.950;2023-02-08T04:24:13;13.20;;;7.63;;
4726;SDS011;2377;51.734;8.950;2023-02-08T04:26:40;14.10;;;7.73;;
4726;SDS011;2377;51.734;8.950;2023-02-08T04:29:07;12.93;;;6.83;;
4726;SDS011;2377;51.734;8.950;2023-02-08T04:31:34;11.77;;;7.13;;
4726;SDS011;2377;51.734;8.950;2023-02-08T04:34:01;15.33;;;7.93;;
4726;SDS011;2377;51.734;8.950;2023-02-08T04:36:28;19.77;;;9.73;;
4726;SDS011;2377;51.734;8.950;2023-02-08T04:38:55;20.13;;;9.70;;
4726;SDS011;2377;51.734;8.950;2023-02-08T04:41:24;18.13;;;8.77;;
4726;SDS011;2377;51.734;8.950;2023-02-08T04:43:51;24.27;;;10.80;;
4726;SDS011;2377;51.734;8.950;2023-02-08T04:46:18;14.50;;;9.03;;
4726;SDS011;2377;51.734;8.950;2023-02-08T04:48:45;20.23;;;8.53;;
4726;SDS011;2377;51.734;8.950;2023-02-08T04:51:12;15.83;;;9.33;;
4726;SDS011;2377;51.734;8.950;2023-02-08T04:53:39;15.23;;;8.33;;
4726;SDS011;2377;51.734;8.950;2023-02-08T04:56:06;17.73;;;9.83;;
4726;SDS011;2377;51.734;8.950;2023-02-08T04:58:35;16.70;;;9.40;;
4726;SDS011;2377;51.734;8.950;2023-02-08T05:01:04;16.87;;;9.63;;
4726;SDS011;2377;51.734;8.950;2023-02-08T05:03:32;18.87;;;9.83;;
4726;SDS011;2377;51.734;8.950;2023-02-08T05:05:59;17.10;;;8.83;;
4726;SDS011;2377;51.734;8.950;2023-02-08T05:08:27;18.67;;;10.23;;
4726;SDS011;2377;51.734;8.950;2023-02-08T05:10:54;18.60;;;10.10;;
4726;SDS011;2377;51.734;8.950;2023-02-08T05:13:21;15.83;;;9.30;;
4726;SDS011;2377;51.734;8.950;2023-02-08T05:15:49;17.90;;;9.87;;
4726;SDS011;2377;51.734;8.950;2023-02-08T05:18:16;20.43;;;9.50;;
4726;SDS011;2377;51.734;8.950;2023-02-08T05:20:44;16.60;;;8.50;;
4726;SDS011;2377;51.734;8.950;2023-02-08T05:23:11;16.27;;;8.73;;
4726;SDS011;2377;51.734;8.950;2023-02-08T05:25:38;20.20;;;10.70;;
4726;SDS011;2377;51.734;8.950;2023-02-08T05:28:06;16.73;;;8.83;;
4726;SDS011;2377;51.734;8.950;2023-02-08T05:30:33;17.87;;;10.00;;
4726;SDS011;2377;51.734;8.950;2023-02-08T05:33:01;19.77;;;10.17;;
4726;SDS011;2377;51.734;8.950;2023-02-08T05:35:28;19.70;;;9.70;;
4726;SDS011;2377;51.734;8.950;2023-02-08T05:37:55;18.70;;;10.03;;
4726;SDS011;2377;51.734;8.950;2023-02-08T05:40:22;19.73;;;10.27;;
4726;SDS011;2377;51.734;8.950;2023-02-08T05:42:49;18.83;;;9.67;;
4726;SDS011;2377;51.734;8.950;2023-02-08T05:45:17;17.97;;;10.20;;
4726;SDS011;2377;51.734;8.950;2023-02-08T05:47:44;18.43;;;10.20;;
4726;SDS011;2377;51.734;8.950;2023-02-08T05:50:13;20.20;;;9.70;;
4726;SDS011;2377;51.734;8.950;2023-02-08T05:52:40;14.87;;;8.43;;
4726;SDS011;2377;51.734;8.950;2023-02-08T05:55:07;18.17;;;9.87;;
4726;SDS011;2377;51.734;8.950;2023-02-08T05:57:34;21.40;;;8.87;;
4726;SDS011;2377;51.734;8.950;2023-02-08T06:00:03;19.13;;;9.93;;
4726;SDS011;2377;51.734;8.950;2023-02-08T06:02:31;17.43;;;9.13;;
4726;SDS011;2377;51.734;8.950;2023-02-08T06:04:59;15.23;;;8.47;;
4726;SDS011;2377;51.734;8.950;2023-02-08T06:07:27;18.07;;;8.27;;
4726;SDS011;2377;51.734;8.950;2023-02-08T06:09:54;15.13;;;8.43;;
4726;SDS011;2377;51.734;8.950;2023-02-08T06:12:21;17.67;;;9.37;;
4726;SDS011;2377;51.734;8.950;2023-02-08T06:14:48;20.33;;;9.67;;
4726;SDS011;2377;51.734;8.950;2023-02-08T06:17:15;16.83;;;8.67;;
4726;SDS011;2377;51.734;8.950;2023-02-08T06:19:43;16.43;;;9.10;;
4726;SDS011;2377;51.734;8.950;2023-02-08T06:22:10;17.83;;;10.07;;
4726;SDS011;2377;51.734;8.950;2023-02-08T06:24:38;20.80;;;10.60;;
4726;SDS011;2377;51.734;8.950;2023-02-08T06:27:05;18.43;;;9.90;;
4726;SDS011;2377;51.734;8.950;2023-02-08T06:29:32;20.70;;;11.47;;
4726;SDS011;2377;51.734;8.950;2023-02-08T06:31:59;21.53;;;11.20;;
4726;SDS011;2377;51.734;8.950;2023-02-08T06:34:27;21.10;;;11.07;;
4726;SDS011;2377;51.734;8.950;2023-02-08T06:36:54;18.60;;;10.40;;
4726;SDS011;2377;51.734;8.950;2023-02-08T06:39:24;19.43;;;10.67;;
4726;SDS011;2377;51.734;8.950;2023-02-08T06:41:52;18.40;;;9.00;;
4726;SDS011;2377;51.734;8.950;2023-02-08T06:44:19;19.73;;;9.83;;
4726;SDS011;2377;51.734;8.950;2023-02-08T06:46:46;18.90;;;9.57;;
4726;SDS011;2377;51.734;8.950;2023-02-08T06:49:13;18.30;;;9.57;;
4726;SDS011;2377;51.734;8.950;2023-02-08T06:51:41;17.20;;;9.80;;
4726;SDS011;2377;51.734;8.950;2023-02-08T06:54:08;18.47;;;10.10;;
4726;SDS011;2377;51.734;8.950;2023-02-08T06:56:35;22.70;;;10.10;;
4726;SDS011;2377;51.734;8.950;2023-02-08T06:59:03;17.10;;;9.60;;
4726;SDS011;2377;51.734;8.950;2023-02-08T07:01:30;20.93;;;9.77;;
4726;SDS011;2377;51.734;8.950;2023-02-08T07:03:57;14.37;;;8.50;;
4726;SDS011;2377;51.734;8.950;2023-02-08T07:06:25;20.47;;;9.43;;
4726;SDS011;2377;51.734;8.950;2023-02-08T07:08:52;20.07;;;11.47;;
4726;SDS011;2377;51.734;8.950;2023-02-08T07:11:19;23.80;;;10.80;;
4726;SDS011;2377;51.734;8.950;2023-02-08T07:13:48;18.33;;;8.97;;
4726;SDS011;2377;51.734;8.950;2023-02-08T07:16:18;17.60;;;9.73;;
4726;SDS011;2377;51.734;8.950;2023-02-08T07:18:45;17.57;;;8.90;;
4726;SDS011;2377;51.734;8.950;2023-02-08T07:21:13;19.00;;;9.00;;
4726;SDS011;2377;51.734;8.950;2023-02-08T07:23:40;16.90;;;7.53;;
4726;SDS011;2377;51.734;8.950;2023-02-08T07:26:09;17.37;;;9.20;;
4726;SDS011;2377;51.734;8.950;2023-02-08T07:28:39;18.67;;;8.87;;
4726;SDS011;2377;51.734;8.950;2023-02-08T07:31:07;19.70;;;9.53;;
4726;SDS011;2377;51.734;8.950;2023-02-08T07:33:38;20.60;;;9.87;;
4726;SDS011;2377;51.734;8.950;2023-02-08T07:36:06;15.67;;;9.10;;
4726;SDS011;2377;51.734;8.950;2023-02-08T07:38:35;21.37;;;10.20;;
4726;SDS011;2377;51.734;8.950;2023-02-08T07:41:04;18.13;;;10.10;;
4726;SDS011;2377;51.734;8.950;2023-02-08T07:43:34;20.00;;;9.60;;
4726;SDS011;2377;51.734;8.950;2023-02-08T07:46:06;20.50;;;10.90;;
4726;SDS011;2377;51.734;8.950;2023-02-08T07:48:34;22.97;;;11.40;;
4726;SDS011;2377;51.734;8.950;2023-02-08T07:51:03;19.90;;;9.80;;
4726;SDS011;2377;51.734;8.950;2023-02-08T07:53:31;23.97;;;11.07;;
4726;SDS011;2377;51.734;8.950;2023-02-08T07:55:58;23.77;;;12.60;;
4726;SDS011;2377;51.734;8.950;2023-02-08T07:58:26;18.27;;;10.00;;
4726;SDS011;2377;51.734;8.950;2023-02-08T08:00:53;21.73;;;11.30;;
4726;SDS011;2377;51.734;8.950;2023-02-08T08:03:20;21.93;;;11.53;;
4726;SDS011;2377;51.734;8.950;2023-02-08T08:05:48;26.50;;;12.57;;
4726;SDS011;2377;51.734;8.950;2023-02-08T08:08:17;45.73;;;19.67;;
4726;SDS011;2377;51.734;8.950;2023-02-08T08:10:44;36.80;;;17.30;;
4726;SDS011;2377;51.734;8.950;2023-02-08T08:13:11;31.30;;;14.90;;
4726;SDS011;2377;51.734;8.950;2023-02-08T08:15:39;21.50;;;10.90;;
4726;SDS011;2377;51.734;8.950;2023-02-08T08:18:06;26.03;;;12.77;;
4726;SDS011;2377;51.734;8.950;2023-02-08T08:20:34;23.63;;;12.60;;
4726;SDS011;2377;51.734;8.950;2023-02-08T08:23:01;26.87;;;13.50;;
4726;SDS011;2377;51.734;8.950;2023-02-08T08:25:30;24.10;;;12.90;;
4726;SDS011;2377;51.734;8.950;2023-02-08T08:27:57;22.37;;;11.63;;
4726;SDS011;2377;51.734;8.950;2023-02-08T08:30:24;29.70;;;14.47;;
4726;SDS011;2377;51.734;8.950;2023-02-08T08:32:51;23.30;;;12.30;;
4726;SDS011;2377;51.734;8.950;2023-02-08T08:35:18;27.97;;;14.23;;
4726;SDS011;2377;51.734;8.950;2023-02-08T08:37:46;24.47;;;12.67;;
4726;SDS011;2377;51.734;8.950;2023-02-08T08:40:13;21.13;;;11.20;;
4726;SDS011;2377;51.734;8.950;2023-02-08T08:42:41;19.47;;;9.50;;
4726;SDS011;2377;51.734;8.950;2023-02-08T08:45:09;15.27;;;8.33;;
4726;SDS011;2377;51.734;8.950;2023-02-08T08:47:36;13.97;;;7.90;;
4726;SDS011;2377;51.734;8.950;2023-02-08T08:50:04;16.40;;;8.93;;
4726;SDS011;2377;51.734;8.950;2023-02-08T08:52:32;17.00;;;8.83;;
4726;SDS011;2377;51.734;8.950;2023-02-08T08:54:59;16.33;;;9.13;;
4726;SDS011;2377;51.734;8.950;2023-02-08T08:57:26;14.43;;;8.87;;
4726;SDS011;2377;51.734;8.950;2023-02-08T08:59:54;18.10;;;9.47;;
4726;SDS011;2377;51.734;8.950;2023-02-08T09:02:21;15.93;;;9.00;;
4726;SDS011;2377;51.734;8.950;2023-02-08T09:04:48;17.80;;;9.50;;
4726;SDS011;2377;51.734;8.950;2023-02-08T09:07:15;17.07;;;9.57;;
4726;SDS011;2377;51.734;8.950;2023-02-08T09:09:43;17.87;;;10.17;;
4726;SDS011;2377;51.734;8.950;2023-02-08T09:12:12;15.27;;;9.10;;
4726;SDS011;2377;51.734;8.950;2023-02-08T09:14:40;17.80;;;9.30;;
4726;SDS011;2377;51.734;8.950;2023-02-08T09:17:10;15.30;;;9.13;;
4726;SDS011;2377;51.734;8.950;2023-02-08T09:19:37;17.47;;;9.50;;
4726;SDS011;2377;51.734;8.950;2023-02-08T09:22:04;17.07;;;8.70;;
4726;SDS011;2377;51.734;8.950;2023-02-08T09:24:32;16.20;;;9.10;;
4726;SDS011;2377;51.734;8.950;2023-02-08T09:26:59;15.37;;;9.67;;
4726;SDS011;2377;51.734;8.950;2023-02-08T09:29:26;20.67;;;9.90;;
4726;SDS011;2377;51.734;8.950;2023-02-08T09:31:54;18.93;;;9.93;;
4726;SDS011;2377;51.734;8.950;2023-02-08T09:34:23;17.50;;;9.80;;
4726;SDS011;2377;51.734;8.950;2023-02-08T09:36:50;16.57;;;9.77;;
4726;SDS011;2377;51.734;8.950;2023-02-08T09:39:18;15.27;;;8.87;;
4726;SDS011;2377;51.734;8.950;2023-02-08T09:42:00;15.87;;;8.87;;
4726;SDS011;2377;51.734;8.950;2023-02-08T09:44:56;15.50;;;8.13;;
4726;SDS011;2377;51.734;8.950;2023-02-08T09:47:49;13.60;;;8.17;;
4726;SDS011;2377;51.734;8.950;2023-02-08T09:50:29;14.77;;;8.80;;
4726;SDS011;2377;51.734;8.950;2023-02-08T09:53:05;14.53;;;8.90;;
4726;SDS011;2377;51.734;8.950;2023-02-08T09:55:40;13.67;;;8.77;;
4726;SDS011;2377;51.734;8.950;2023-02-08T09:58:16;14.00;;;8.70;;
4726;SDS011;2377;51.734;8.950;2023-02-08T10:00:50;13.83;;;8.37;;
4726;SDS011;2377;51.734;8.950;2023-02-08T10:03:31;15.30;;;8.80;;
4726;SDS011;2377;51.734;8.950;2023-02-08T10:06:03;14.10;;;7.43;;
4726;SDS011;2377;51.734;8.950;2023-02-08T10:08:35;13.67;;;8.10;;
4726;SDS011;2377;51.734;8.950;2023-02-08T10:11:06;12.90;;;7.83;;
4726;SDS011;2377;51.734;8.950;2023-02-08T10:16:58;13.00;;;8.40;;
4726;SDS011;2377;51.734;8.950;2023-02-08T10:19:41;16.40;;;8.70;;
4726;SDS011;2377;51.734;8.950;2023-02-08T10:22:30;12.30;;;7.60;;
4726;SDS011;2377;51.734;8.950;2023-02-08T10:28:33;13.77;;;7.90;;
4726;SDS011;2377;51.734;8.950;2023-02-08T10:31:38;14.17;;;8.20;;
4726;SDS011;2377;51.734;8.950;2023-02-08T10:34:38;13.93;;;8.00;;
4726;SDS011;2377;51.734;8.950;2023-02-08T10:37:12;13.20;;;7.43;;
4726;SDS011;2377;51.734;8.950;2023-02-08T10:39:44;9.30;;;6.23;;
4726;SDS011;2377;51.734;8.950;2023-02-08T10:42:14;10.03;;;6.30;;
4726;SDS011;2377;51.734;8.950;2023-02-08T10:47:41;12.17;;;6.50;;
4726;SDS011;2377;51.734;8.950;2023-02-08T10:50:15;10.80;;;6.67;;
4726;SDS011;2377;51.734;8.950;2023-02-08T10:52:51;9.40;;;5.77;;
4726;SDS011;2377;51.734;8.950;2023-02-08T10:55:19;10.17;;;6.80;;
4726;SDS011;2377;51.734;8.950;2023-02-08T10:57:47;11.73;;;6.80;;
4726;SDS011;2377;51.734;8.950;2023-02-08T11:00:20;7.93;;;5.30;;
4726;SDS011;2377;51.734;8.950;2023-02-08T11:02:51;11.50;;;6.53;;
4726;SDS011;2377;51.734;8.950;2023-02-08T11:05:30;11.03;;;6.50;;
4726;SDS011;2377;51.734;8.950;2023-02-08T11:08:03;11.17;;;6.30;;
4726;SDS011;2377;51.734;8.950;2023-02-08T11:10:34;10.40;;;6.30;;
4726;SDS011;2377;51.734;8.950;2023-02-08T11:13:03;12.17;;;6.83;;
4726;SDS011;2377;51.734;8.950;2023-02-08T11:15:42;12.80;;;8.07;;
4726;SDS011;2377;51.734;8.950;2023-02-08T11:18:18;16.20;;;8.67;;
4726;SDS011;2377;51.734;8.950;2023-02-08T11:20:49;14.10;;;7.30;;
4726;SDS011;2377;51.734;8.950;2023-02-08T11:23:23;14.83;;;8.33;;
4726;SDS011;2377;51.734;8.950;2023-02-08T11:25:55;13.73;;;8.30;;
4726;SDS011;2377;51.734;8.950;2023-02-08T11:28:44;13.87;;;8.70;;
4726;SDS011;2377;51.734;8.950;2023-02-08T11:31:26;13.43;;;8.17;;
4726;SDS011;2377;51.734;8.950;2023-02-08T11:34:01;13.93;;;8.27;;
4726;SDS011;2377;51.734;8.950;2023-02-08T11:36:31;14.97;;;8.57;;
4726;SDS011;2377;51.734;8.950;2023-02-08T11:39:00;12.30;;;7.00;;
4726;SDS011;2377;51.734;8.950;2023-02-08T11:41:43;14.10;;;8.37;;
4726;SDS011;2377;51.734;8.950;2023-02-08T11:44:12;13.63;;;7.90;;
4726;SDS011;2377;51.734;8.950;2023-02-08T11:46:48;16.37;;;8.60;;
4726;SDS011;2377;51.734;8.950;2023-02-08T11:49:22;16.37;;;8.97;;
4726;SDS011;2377;51.734;8.950;2023-02-08T11:52:18;13.23;;;7.63;;
4726;SDS011;2377;51.734;8.950;2023-02-08T11:54:49;13.00;;;7.87;;
4726;SDS011;2377;51.734;8.950;2023-02-08T11:57:19;14.23;;;8.20;;
4726;SDS011;2377;51.734;8.950;2023-02-08T11:59:49;11.97;;;7.27;;
4726;SDS011;2377;51.734;8.950;2023-02-08T12:02:35;14.20;;;8.43;;
4726;SDS011;2377;51.734;8.950;2023-02-08T12:05:08;13.60;;;7.53;;
4726;SDS011;2377;51.734;8.950;2023-02-08T12:07:45;11.07;;;6.37;;
4726;SDS011;2377;51.734;8.950;2023-02-08T12:10:42;11.77;;;6.20;;
4726;SDS011;2377;51.734;8.950;2023-02-08T12:13:33;11.53;;;6.43;;
4726;SDS011;2377;51.734;8.950;2023-02-08T12:16:37;10.90;;;6.10;;
4726;SDS011;2377;51.734;8.950;2023-02-08T12:19:28;10.83;;;6.30;;
4726;SDS011;2377;51.734;8.950;2023-02-08T12:22:20;11.40;;;6.50;;
4726;SDS011;2377;51.734;8.950;2023-02-08T12:24:53;16.20;;;6.80;;
4726;SDS011;2377;51.734;8.950;2023-02-08T12:27:45;12.83;;;5.83;;
4726;SDS011;2377;51.734;8.950;2023-02-08T12:30:28;11.23;;;5.73;;
4726;SDS011;2377;51.734;8.950;2023-02-08T12:36:19;10.57;;;6.27;;
4726;SDS011;2377;51.734;8.950;2023-02-08T12:39:11;10.23;;;5.70;;
4726;SDS011;2377;51.734;8.950;2023-02-08T12:42:22;11.40;;;6.57;;
4726;SDS011;2377;51.734;8.950;2023-02-08T12:45:18;9.30;;;5.60;;
4726;SDS011;2377;51.734;8.950;2023-02-08T12:48:21;10.43;;;6.07;;
4726;SDS011;2377;51.734;8.950;2023-02-08T12:51:10;13.50;;;5.87;;
4726;SDS011;2377;51.734;8.950;2023-02-08T12:53:50;10.47;;;5.87;;
4726;SDS011;2377;51.734;8.950;2023-02-08T12:56:24;9.30;;;5.00;;
4726;SDS011;2377;51.734;8.950;2023-02-08T12:58:59;8.60;;;5.43;;
4726;SDS011;2377;51.734;8.950;2023-02-08T13:01:32;8.70;;;5.57;;
4726;SDS011;2377;51.734;8.950;2023-02-08T13:04:06;10.00;;;5.33;;
4726;SDS011;2377;51.734;8.950;2023-02-08T13:06:40;9.93;;;5.43;;
4726;SDS011;2377;51.734;8.950;2023-02-08T13:09:12;8.20;;;5.10;;
4726;SDS011;2377;51.734;8.950;2023-02-08T13:11:47;8.13;;;5.10;;
4726;SDS011;2377;51.734;8.950;2023-02-08T13:14:25;9.60;;;5.73;;
4726;SDS011;2377;51.734;8.950;2023-02-08T13:17:03;8.90;;;5.20;;
4726;SDS011;2377;51.734;8.950;2023-02-08T13:19:45;9.07;;;5.83;;
4726;SDS011;2377;51.734;8.950;2023-02-08T13:22:20;8.83;;;5.10;;
4726;SDS011;2377;51.734;8.950;2023-02-08T13:24:49;11.50;;;6.20;;
4726;SDS011;2377;51.734;8.950;2023-02-08T13:27:18;9.10;;;5.60;;
4726;SDS011;2377;51.734;8.950;2023-02-08T13:29:49;9.27;;;5.40;;
4726;SDS011;2377;51.734;8.950;2023-02-08T13:32:21;13.03;;;5.97;;
4726;SDS011;2377;51.734;8.950;2023-02-08T13:34:55;11.60;;;6.07;;
4726;SDS011;2377;51.734;8.950;2023-02-08T13:37:28;10.80;;;5.60;;
4726;SDS011;2377;51.734;8.950;2023-02-08T13:40:01;11.33;;;5.63;;
4726;SDS011;2377;51.734;8.950;2023-02-08T13:42:35;12.17;;;6.70;;
4726;SDS011;2377;51.734;8.950;2023-02-08T13:45:07;11.77;;;6.27;;
4726;SDS011;2377;51.734;8.950;2023-02-08T13:47:55;12.80;;;6.80;;
4726;SDS011;2377;51.734;8.950;2023-02-08T13:50:38;13.37;;;8.17;;
4726;SDS011;2377;51.734;8.950;2023-02-08T13:53:12;12.93;;;7.30;;
4726;SDS011;2377;51.734;8.950;2023-02-08T14:01:27;11.57;;;7.70;;
4726;SDS011;2377;51.734;8.950;2023-02-08T14:06:58;14.30;;;7.90;;
4726;SDS011;2377;51.734;8.950;2023-02-08T14:09:42;14.33;;;8.00;;
4726;SDS011;2377;51.734;8.950;2023-02-08T14:12:20;12.03;;;6.90;;
4726;SDS011;2377;51.734;8.950;2023-02-08T14:15:06;13.03;;;7.10;;
4726;SDS011;2377;51.734;8.950;2023-02-08T14:17:58;14.67;;;8.33;;
4726;SDS011;2377;51.734;8.950;2023-02-08T14:20:30;11.97;;;6.93;;
4726;SDS011;2377;51.734;8.950;2023-02-08T14:23:04;12.27;;;7.57;;
4726;SDS011;2377;51.734;8.950;2023-02-08T14:25:48;10.43;;;6.83;;
4726;SDS011;2377;51.734;8.950;2023-02-08T14:28:25;13.63;;;7.40;;
4726;SDS011;2377;51.734;8.950;2023-02-08T14:30:57;10.27;;;6.73;;
4726;SDS011;2377;51.734;8.950;2023-02-08T14:33:32;11.83;;;7.50;;
4726;SDS011;2377;51.734;8.950;2023-02-08T14:36:06;16.20;;;7.70;;
4726;SDS011;2377;51.734;8.950;2023-02-08T14:41:51;13.70;;;8.40;;
4726;SDS011;2377;51.734;8.950;2023-02-08T14:50:51;14.20;;;7.77;;
4726;SDS011;2377;51.734;8.950;2023-02-08T14:53:34;16.23;;;8.00;;
4726;SDS011;2377;51.734;8.950;2023-02-08T14:56:17;17.57;;;8.50;;
4726;SDS011;2377;51.734;8.950;2023-02-08T14:58:48;13.23;;;7.50;;
4726;SDS011;2377;51.734;8.950;2023-02-08T15:01:21;14.00;;;7.53;;
4726;SDS011;2377;51.734;8.950;2023-02-08T15:04:05;13.83;;;8.10;;
4726;SDS011;2377;51.734;8.950;2023-02-08T15:06:40;12.60;;;7.70;;
4726;SDS011;2377;51.734;8.950;2023-02-08T15:09:40;13.53;;;7.40;;
4726;SDS011;2377;51.734;8.950;2023-02-08T15:12:12;11.90;;;7.20;;
4726;SDS011;2377;51.734;8.950;2023-02-08T15:14:47;11.43;;;6.73;;
4726;SDS011;2377;51.734;8.950;2023-02-08T15:17:20;12.17;;;6.87;;
4726;SDS011;2377;51.734;8.950;2023-02-08T15:19:57;16.13;;;8.17;;
4726;SDS011;2377;51.734;8.950;2023-02-08T15:22:29;12.97;;;7.73;;
4726;SDS011;2377;51.734;8.950;2023-02-08T15:25:01;13.90;;;7.87;;
4726;SDS011;2377;51.734;8.950;2023-02-08T15:27:48;13.30;;;7.03;;
4726;SDS011;2377;51.734;8.950;2023-02-08T15:30:22;14.13;;;7.03;;
4726;SDS011;2377;51.734;8.950;2023-02-08T15:32:51;11.90;;;6.87;;
4726;SDS011;2377;51.734;8.950;2023-02-08T15:35:22;13.80;;;7.20;;
4726;SDS011;2377;51.734;8.950;2023-02-08T15:37:51;11.30;;;6.87;;
4726;SDS011;2377;51.734;8.950;2023-02-08T15:40:22;13.27;;;7.53;;
4726;SDS011;2377;51.734;8.950;2023-02-08T15:42:53;11.20;;;6.43;;
4726;SDS011;2377;51.734;8.950;2023-02-08T15:45:26;11.97;;;6.03;;
4726;SDS011;2377;51.734;8.950;2023-02-08T15:47:55;12.50;;;7.37;;
4726;SDS011;2377;51.734;8.950;2023-02-08T15:50:24;11.47;;;7.00;;
4726;SDS011;2377;51.734;8.950;2023-02-08T15:52:56;14.70;;;6.30;;
4726;SDS011;2377;51.734;8.950;2023-02-08T15:55:28;11.53;;;6.43;;
4726;SDS011;2377;51.734;8.950;2023-02-08T15:58:00;11.00;;;6.80;;
4726;SDS011;2377;51.734;8.950;2023-02-08T16:00:33;12.03;;;6.90;;
4726;SDS011;2377;51.734;8.950;2023-02-08T16:03:03;10.37;;;5.80;;
4726;SDS011;2377;51.734;8.950;2023-02-08T16:05:34;9.40;;;5.77;;
4726;SDS011;2377;51.734;8.950;2023-02-08T16:08:03;10.43;;;5.93;;
4726;SDS011;2377;51.734;8.950;2023-02-08T16:10:34;9.70;;;5.77;;